Terminal Aerodrome Forecast
Issued by NWS Wilmington, OH

Current Version | Previous Version | Graphics & Text | Print | Product List | Glossary On
Versions: 1 2 3 4 5 6 7 8 9 10 11 12 13 14 15 16 17 18 19 20 21 22 23 24 25
425
FTUS41 KILN 210537
TAFCMH
TAF
KCMH 210537Z 2106/2206 VRB03KT P6SM OVC100
     FM211100 23003KT P6SM SCT070
     FM211400 27008KT P6SM SCT045
     FM211800 27008KT P6SM VCSH BKN045
     FM212100 26008KT P6SM BKN045
     FM220200 14003KT P6SM SCT045=

USA.gov is the U.S. government's official web portal to all federal, state and local government web resources and services.